createdAt,value
2022-12-09T00:02:39.561Z,18.00
2022-12-09T00:05:41.519Z,18.35
2022-12-09T00:08:43.151Z,18.63
2022-12-09T00:11:44.576Z,17.98
2022-12-09T00:14:45.561Z,18.33
2022-12-09T00:17:46.893Z,18.70
2022-12-09T00:20:47.556Z,19.52
2022-12-09T00:23:50.318Z,17.75
2022-12-09T00:26:51.315Z,17.95
2022-12-09T00:29:52.656Z,18.77
2022-12-09T00:32:53.886Z,17.85
2022-12-09T00:35:55.122Z,19.77
2022-12-09T00:38:59.095Z,19.30
2022-12-09T00:42:00.106Z,20.13
2022-12-09T00:45:02.503Z,19.58
2022-12-09T00:48:04.005Z,20.90
2022-12-09T00:51:13.572Z,21.30
2022-12-09T00:54:15.040Z,21.85
2022-12-09T00:57:16.373Z,20.80
2022-12-09T01:00:18.331Z,20.13
2022-12-09T01:03:20.224Z,20.63
2022-12-09T01:06:25.564Z,22.63
2022-12-09T01:09:26.723Z,23.63
2022-12-09T01:12:27.724Z,21.83
2022-12-09T01:15:29.510Z,24.02
2022-12-09T01:18:31.065Z,23.63
2022-12-09T01:21:32.606Z,22.27
2022-12-09T01:24:33.718Z,24.73
2022-12-09T01:27:34.815Z,21.60
2022-12-09T01:30:35.453Z,23.08
2022-12-09T01:33:37.060Z,24.35
2022-12-09T01:36:37.925Z,24.50
2022-12-09T01:39:39.451Z,24.52
2022-12-09T01:42:41.066Z,25.02
2022-12-09T01:45:43.528Z,25.52
2022-12-09T01:48:47.343Z,25.13
2022-12-09T01:52:17.486Z,25.60
2022-12-09T01:55:19.679Z,24.55
2022-12-09T01:58:21.369Z,25.27
2022-12-09T02:01:26.217Z,24.17
2022-12-09T02:04:33.644Z,23.70
2022-12-09T02:07:35.492Z,25.45
2022-12-09T02:11:05.563Z,25.58
2022-12-09T02:14:27.867Z,27.43
2022-12-09T02:17:51.668Z,26.80
2022-12-09T02:21:12.432Z,26.13
2022-12-09T02:25:09.380Z,25.30
2022-12-09T02:28:27.242Z,24.98
2022-12-09T02:32:22.156Z,27.00
2022-12-09T02:35:35.326Z,25.77
2022-12-09T02:38:43.175Z,25.98
2022-12-09T02:41:49.584Z,27.13
2022-12-09T02:44:52.644Z,25.75
2022-12-09T02:48:01.361Z,25.83
2022-12-09T02:51:08.814Z,27.40
2022-12-09T02:54:17.727Z,24.10
2022-12-09T02:57:26.024Z,26.52
2022-12-09T03:00:28.982Z,28.73
2022-12-09T03:03:33.962Z,25.75
2022-12-09T03:06:46.801Z,28.33
2022-12-09T03:10:00.385Z,25.48
2022-12-09T03:13:14.140Z,23.85
2022-12-09T03:16:48.584Z,25.70
2022-12-09T03:19:59.602Z,25.27
2022-12-09T03:23:05.806Z,24.95
2022-12-09T03:26:07.425Z,25.63
2022-12-09T03:29:17.739Z,24.73
2022-12-09T03:32:25.411Z,24.95
2022-12-09T03:35:58.256Z,24.63
2022-12-09T03:39:02.203Z,23.25
2022-12-09T03:42:14.717Z,25.90
2022-12-09T03:45:19.780Z,25.08
2022-12-09T03:48:22.387Z,25.38
2022-12-09T03:52:17.336Z,26.40
2022-12-09T03:55:30.651Z,25.45
2022-12-09T03:58:35.879Z,23.52
2022-12-09T04:01:39.201Z,25.88
2022-12-09T04:04:42.692Z,24.83
2022-12-09T04:07:44.329Z,25.67
2022-12-09T04:10:47.017Z,28.00
2022-12-09T04:13:48.247Z,26.63
2022-12-09T04:16:49.154Z,26.70
2022-12-09T04:19:50.475Z,26.70
2022-12-09T04:22:51.668Z,29.10
2022-12-09T04:25:52.971Z,26.55
2022-12-09T04:28:54.355Z,27.77
2022-12-09T04:31:55.083Z,31.02
2022-12-09T04:34:56.700Z,28.13
2022-12-09T04:37:57.878Z,29.35
2022-12-09T04:41:01.003Z,27.33
2022-12-09T04:44:02.513Z,30.27
2022-12-09T04:47:04.676Z,28.02
2022-12-09T04:50:07.630Z,31.88
2022-12-09T04:53:09.033Z,28.17
2022-12-09T04:56:19.799Z,29.17
2022-12-09T04:59:21.072Z,27.60
2022-12-09T05:02:22.525Z,28.60
2022-12-09T05:05:23.630Z,27.85
2022-12-09T05:08:31.053Z,26.67
2022-12-09T05:11:33.010Z,28.65
2022-12-09T05:14:34.442Z,27.70
2022-12-09T05:17:35.769Z,28.17
2022-12-09T05:20:40.110Z,28.40
2022-12-09T05:23:41.756Z,30.45
2022-12-09T05:26:42.946Z,27.38
2022-12-09T05:29:43.853Z,30.23
2022-12-09T05:32:44.791Z,29.08
2022-12-09T05:35:52.689Z,29.25
2022-12-09T05:38:55.944Z,27.63
2022-12-09T05:41:57.187Z,27.90
2022-12-09T05:44:58.126Z,28.73
2022-12-09T05:47:59.143Z,27.77
2022-12-09T05:51:04.333Z,27.70
2022-12-09T05:54:07.316Z,27.90
2022-12-09T05:57:08.715Z,29.92
2022-12-09T06:00:10.992Z,28.15
2022-12-09T06:03:15.800Z,30.17
2022-12-09T06:06:20.763Z,28.48
2022-12-09T06:09:22.584Z,27.38
2022-12-09T06:12:23.930Z,27.30
2022-12-09T06:15:32.932Z,27.52
2022-12-09T06:18:35.351Z,29.15
2022-12-09T06:21:41.558Z,26.75
2022-12-09T06:24:42.825Z,28.80
2022-12-09T06:27:44.004Z,28.70
2022-12-09T06:30:45.342Z,30.10
2022-12-09T06:33:54.856Z,30.70
2022-12-09T06:36:57.808Z,44.05
2022-12-09T06:39:58.875Z,31.60
2022-12-09T06:43:00.296Z,31.42
2022-12-09T06:46:01.910Z,31.02
2022-12-09T06:49:03.586Z,30.13
2022-12-09T06:52:05.163Z,31.75
2022-12-09T06:55:09.109Z,32.63
2022-12-09T06:58:10.743Z,35.45
2022-12-09T07:01:26.096Z,35.55
2022-12-09T07:04:27.983Z,34.15
2022-12-09T07:07:29.306Z,34.47
2022-12-09T07:10:30.826Z,34.42
2022-12-09T07:13:32.557Z,34.38
2022-12-09T07:16:35.308Z,34.50
2022-12-09T07:19:36.341Z,35.53
2022-12-09T07:22:37.988Z,33.22
2022-12-09T07:25:39.576Z,35.85
2022-12-09T07:28:42.733Z,35.15
2022-12-09T07:31:45.311Z,34.33
2022-12-09T07:34:46.440Z,36.58
2022-12-09T07:37:47.552Z,33.83
2022-12-09T07:40:49.151Z,34.65
2022-12-09T07:43:50.439Z,34.92
2022-12-09T07:46:52.082Z,33.67
2022-12-09T07:49:53.519Z,33.90
2022-12-09T07:52:54.328Z,33.65
2022-12-09T07:55:56.659Z,31.73
2022-12-09T07:58:58.777Z,34.28
2022-12-09T08:02:05.707Z,32.53
2022-12-09T08:05:08.993Z,34.60
2022-12-09T08:08:10.940Z,31.10
2022-12-09T08:11:18.864Z,33.50
2022-12-09T08:14:21.017Z,32.35
2022-12-09T08:17:22.247Z,34.53
2022-12-09T08:20:28.768Z,33.60
2022-12-09T08:23:30.554Z,32.53
2022-12-09T08:26:32.774Z,32.80
2022-12-09T08:29:34.392Z,31.38
2022-12-09T08:32:35.997Z,30.75
2022-12-09T08:35:38.740Z,32.50
2022-12-09T08:38:40.111Z,31.65
2022-12-09T08:41:43.857Z,29.33
2022-12-09T08:44:45.333Z,28.05
2022-12-09T08:47:46.817Z,28.52
2022-12-09T08:50:48.138Z,30.05
2022-12-09T08:53:49.444Z,29.02
2022-12-09T08:56:55.258Z,30.30
2022-12-09T08:59:56.488Z,30.55
2022-12-09T09:02:57.409Z,29.17
2022-12-09T09:06:10.721Z,30.73
2022-12-09T09:09:14.247Z,29.63
2022-12-09T09:12:15.448Z,29.65
2022-12-09T09:15:17.583Z,28.48
2022-12-09T09:18:18.999Z,30.70
2022-12-09T09:21:24.975Z,30.95
2022-12-09T09:24:26.810Z,29.45
2022-12-09T09:27:28.373Z,29.83
2022-12-09T09:30:29.879Z,31.20
2022-12-09T09:33:31.553Z,30.02
2022-12-09T09:36:33.424Z,31.48
2022-12-09T09:39:34.794Z,29.90
2022-12-09T09:42:47.954Z,27.45
2022-12-09T09:45:51.569Z,29.02
2022-12-09T09:48:53.957Z,28.45
2022-12-09T09:51:57.019Z,26.80
2022-12-09T09:54:58.694Z,28.65
2022-12-09T09:58:20.603Z,26.63
2022-12-09T10:01:26.864Z,27.02
2022-12-09T10:04:33.772Z,25.70
2022-12-09T10:07:43.825Z,26.77
2022-12-09T10:11:27.052Z,26.60
2022-12-09T10:14:34.209Z,26.80
2022-12-09T10:18:09.570Z,28.83
2022-12-09T10:21:21.011Z,26.80
2022-12-09T10:24:39.180Z,26.30
2022-12-09T10:27:55.323Z,26.95
2022-12-09T10:30:57.707Z,27.25
2022-12-09T10:33:59.798Z,26.08
2022-12-09T10:37:01.239Z,25.90
2022-12-09T10:40:08.995Z,27.30
2022-12-09T10:43:41.222Z,25.45
2022-12-09T10:46:42.713Z,26.42
2022-12-09T10:49:44.222Z,26.45
2022-12-09T10:52:46.754Z,27.60
2022-12-09T10:55:54.811Z,27.00
2022-12-09T10:59:22.687Z,24.73
2022-12-09T11:02:24.768Z,28.00
2022-12-09T11:05:31.933Z,26.00
2022-12-09T11:08:35.247Z,24.52
2022-12-09T11:11:47.244Z,26.23
2022-12-09T11:14:56.244Z,24.90
2022-12-09T11:18:19.194Z,24.48
2022-12-09T11:21:37.217Z,25.50
2022-12-09T11:24:40.826Z,25.20
2022-12-09T11:27:49.481Z,24.83
2022-12-09T11:34:27.576Z,25.38
2022-12-09T11:37:32.412Z,25.15
2022-12-09T11:40:33.670Z,25.80
2022-12-09T11:43:54.119Z,25.15
2022-12-09T11:47:24.735Z,25.15
2022-12-09T11:50:33.304Z,26.02
2022-12-09T11:53:40.819Z,24.65
2022-12-09T11:56:43.552Z,25.38
2022-12-09T11:59:55.053Z,24.45
2022-12-09T12:03:17.989Z,24.38
2022-12-09T12:06:37.298Z,24.60
2022-12-09T12:09:47.769Z,24.75
2022-12-09T12:13:21.100Z,24.05
2022-12-09T12:17:22.855Z,23.60
2022-12-09T12:20:49.371Z,24.23
2022-12-09T12:24:13.347Z,23.40
2022-12-09T12:28:01.752Z,25.25
2022-12-09T12:31:24.354Z,25.08
2022-12-09T12:34:56.362Z,25.67
2022-12-09T12:38:20.118Z,24.45
2022-12-09T12:41:41.856Z,24.67
2022-12-09T12:45:32.273Z,25.70
2022-12-09T12:48:46.879Z,25.90
2022-12-09T12:52:16.643Z,23.67
2022-12-09T12:56:18.242Z,26.33
2022-12-09T13:00:07.469Z,23.77
2022-12-09T13:03:33.858Z,24.30
2022-12-09T13:07:07.704Z,18.88
2022-12-09T13:10:25.074Z,21.65
2022-12-09T13:13:35.114Z,22.42
2022-12-09T13:16:41.402Z,22.75
2022-12-09T13:19:50.082Z,23.08
2022-12-09T13:23:30.870Z,23.50
2022-12-09T13:26:50.990Z,23.45
2022-12-09T13:30:15.337Z,24.38
2022-12-09T13:33:49.727Z,21.70
2022-12-09T13:36:51.041Z,22.77
2022-12-09T13:39:51.963Z,22.90
2022-12-09T13:43:04.696Z,23.83
2022-12-09T13:46:05.668Z,23.60
2022-12-09T13:49:26.723Z,23.60
2022-12-09T13:52:53.790Z,23.30
2022-12-09T13:56:23.430Z,23.88
2022-12-09T13:59:44.723Z,25.45
2022-12-09T14:03:00.478Z,22.60
2022-12-09T14:06:18.366Z,23.90
2022-12-09T14:09:32.732Z,24.00
2022-12-09T14:12:33.749Z,23.80
2022-12-09T14:15:37.518Z,24.58
2022-12-09T14:18:40.222Z,23.60
2022-12-09T14:21:41.015Z,24.83
2022-12-09T14:24:42.348Z,25.38
2022-12-09T14:28:12.271Z,24.42
2022-12-09T14:31:45.200Z,26.27
2022-12-09T14:34:59.319Z,25.00
2022-12-09T14:38:17.419Z,25.83
2022-12-09T14:41:51.111Z,24.70
2022-12-09T14:45:24.150Z,24.20
2022-12-09T14:48:31.255Z,23.40
2022-12-09T14:51:49.481Z,25.65
2022-12-09T14:54:54.030Z,24.63
2022-12-09T14:58:00.117Z,25.23
2022-12-09T15:01:06.291Z,25.33
2022-12-09T15:04:07.566Z,20.45
2022-12-09T15:07:25.529Z,25.92
2022-12-09T15:10:36.521Z,24.65
2022-12-09T15:13:40.979Z,25.55
2022-12-09T15:16:47.700Z,26.13
2022-12-09T15:20:12.328Z,26.70
2022-12-09T15:23:27.548Z,26.00
2022-12-09T15:26:33.980Z,24.60
2022-12-09T15:29:34.935Z,24.60
2022-12-09T15:32:39.742Z,24.83
2022-12-09T15:35:43.637Z,26.20
2022-12-09T15:39:29.000Z,28.63
2022-12-09T15:42:35.432Z,27.42
2022-12-09T15:45:42.242Z,27.60
2022-12-09T15:48:51.209Z,31.05
2022-12-09T15:51:56.335Z,35.97
2022-12-09T15:55:00.247Z,32.88
2022-12-09T15:58:06.235Z,30.95
2022-12-09T16:01:07.758Z,29.13
2022-12-09T16:04:10.131Z,30.27
2022-12-09T16:07:14.008Z,32.10
2022-12-09T16:10:17.581Z,30.25
2022-12-09T16:13:21.482Z,29.95
2022-12-09T16:17:05.469Z,31.00
2022-12-09T16:20:23.903Z,30.15
2022-12-09T16:23:27.018Z,30.35
2022-12-09T16:26:34.935Z,31.75
2022-12-09T16:29:37.228Z,30.25
2022-12-09T16:32:50.673Z,29.45
2022-12-09T16:36:04.895Z,29.95
2022-12-09T16:39:09.087Z,30.48
2022-12-09T16:42:29.151Z,29.10
2022-12-09T16:45:38.035Z,29.90
2022-12-09T16:48:39.172Z,29.13
2022-12-09T16:51:40.608Z,28.33
2022-12-09T16:54:45.658Z,26.83
2022-12-09T16:57:46.692Z,29.42
2022-12-09T17:00:49.234Z,29.50
2022-12-09T17:03:55.010Z,30.15
2022-12-09T17:06:56.601Z,30.42
2022-12-09T17:09:57.536Z,29.90
2022-12-09T17:12:58.814Z,33.80
2022-12-09T17:15:59.850Z,36.13
2022-12-09T17:19:01.067Z,33.33
2022-12-09T17:22:01.958Z,34.47
2022-12-09T17:25:04.329Z,32.22
2022-12-09T17:28:06.794Z,30.63
2022-12-09T17:31:11.009Z,31.45
2022-12-09T17:34:11.984Z,30.58
2022-12-09T17:37:12.897Z,32.25
2022-12-09T17:40:13.931Z,31.48
2022-12-09T17:43:15.058Z,29.55
2022-12-09T17:46:16.488Z,29.30
2022-12-09T17:49:19.574Z,27.60
2022-12-09T17:52:20.439Z,30.33
2022-12-09T17:55:22.101Z,30.48
2022-12-09T17:58:23.186Z,31.13
2022-12-09T18:01:25.690Z,31.88
2022-12-09T18:04:27.045Z,31.95
2022-12-09T18:07:28.106Z,32.03
2022-12-09T18:10:29.015Z,32.83
2022-12-09T18:13:30.307Z,30.52
2022-12-09T18:16:31.855Z,32.97
2022-12-09T18:19:35.359Z,32.45
2022-12-09T18:22:36.392Z,33.20
2022-12-09T18:25:41.595Z,33.08
2022-12-09T18:28:43.672Z,35.03
2022-12-09T18:31:45.886Z,32.78
2022-12-09T18:34:46.950Z,32.97
2022-12-09T18:37:48.091Z,30.95
2022-12-09T18:41:04.178Z,34.05
2022-12-09T18:44:07.955Z,40.20
2022-12-09T18:47:08.841Z,38.55
2022-12-09T18:50:10.973Z,36.97
2022-12-09T18:53:11.950Z,37.10
2022-12-09T18:56:13.951Z,36.33
2022-12-09T18:59:15.221Z,39.50
2022-12-09T19:02:17.072Z,41.08
2022-12-09T19:05:17.990Z,47.85
2022-12-09T19:08:18.918Z,39.30
2022-12-09T19:11:26.426Z,38.22
2022-12-09T19:17:28.589Z,44.30
2022-12-09T19:20:29.283Z,36.60
2022-12-09T19:23:36.062Z,39.78
2022-12-09T19:26:37.147Z,35.50
2022-12-09T19:29:39.583Z,36.42
2022-12-09T19:32:56.734Z,39.63
2022-12-09T19:35:57.602Z,40.85
2022-12-09T19:38:58.723Z,35.65
2022-12-09T19:42:01.106Z,37.53
2022-12-09T19:45:04.431Z,35.97
2022-12-09T19:48:07.972Z,37.20
2022-12-09T19:51:16.346Z,37.15
2022-12-09T19:54:18.018Z,37.22
2022-12-09T19:57:19.153Z,35.20
2022-12-09T20:00:20.643Z,38.83
2022-12-09T20:03:21.755Z,37.22
2022-12-09T20:06:23.299Z,36.17
2022-12-09T20:09:25.142Z,36.75
2022-12-09T20:12:26.838Z,34.67
2022-12-09T20:15:27.628Z,37.20
2022-12-09T20:18:28.347Z,39.05
2022-12-09T20:21:32.003Z,37.03
2022-12-09T20:24:32.682Z,38.47
2022-12-09T20:27:34.423Z,36.55
2022-12-09T20:30:35.062Z,34.97
2022-12-09T20:33:37.634Z,33.88
2022-12-09T20:36:42.193Z,31.60
2022-12-09T20:39:43.414Z,33.08
2022-12-09T20:42:44.807Z,30.88
2022-12-09T20:45:46.070Z,29.70
2022-12-09T20:48:48.787Z,31.55
2022-12-09T20:51:49.981Z,28.67
2022-12-09T20:54:51.402Z,31.17
2022-12-09T20:57:52.145Z,31.73
2022-12-09T21:00:52.955Z,31.02
2022-12-09T21:03:56.116Z,32.33
2022-12-09T21:06:57.658Z,31.42
2022-12-09T21:09:58.573Z,30.83
2022-12-09T21:12:59.444Z,31.15
2022-12-09T21:16:22.812Z,30.85
2022-12-09T21:19:27.563Z,31.35
2022-12-09T21:22:31.546Z,30.38
2022-12-09T21:25:32.863Z,29.50
2022-12-09T21:28:36.186Z,30.80
2022-12-09T21:31:40.993Z,29.30
2022-12-09T21:34:41.992Z,30.35
2022-12-09T21:37:43.912Z,27.15
2022-12-09T21:40:45.464Z,28.70
2022-12-09T21:43:47.650Z,28.50
2022-12-09T21:46:48.834Z,31.55
2022-12-09T21:49:49.604Z,28.05
2022-12-09T21:52:50.969Z,26.48
2022-12-09T21:55:53.580Z,27.23
2022-12-09T21:58:58.143Z,27.45
2022-12-09T22:02:00.912Z,27.08
2022-12-09T22:05:02.043Z,28.65
2022-12-09T22:08:04.457Z,27.13
2022-12-09T22:11:19.157Z,27.73
2022-12-09T22:14:19.853Z,26.13
2022-12-09T22:17:21.295Z,27.02
2022-12-09T22:21:00.590Z,27.65
2022-12-09T22:23:44.014Z,28.10
2022-12-09T22:26:45.961Z,29.42
2022-12-09T22:29:47.502Z,29.02
2022-12-09T22:32:50.976Z,28.90
2022-12-09T22:35:52.343Z,27.50
2022-12-09T22:38:54.368Z,28.40
2022-12-09T22:41:55.713Z,26.58
2022-12-09T22:44:57.746Z,27.85
2022-12-09T22:47:58.686Z,27.10
2022-12-09T22:51:13.438Z,32.08
2022-12-09T22:54:15.389Z,27.08
2022-12-09T22:57:16.485Z,27.17
2022-12-09T23:00:17.644Z,26.33
2022-12-09T23:03:18.856Z,26.67
2022-12-09T23:06:19.920Z,30.92
2022-12-09T23:09:25.265Z,29.17
2022-12-09T23:12:26.298Z,27.55
2022-12-09T23:15:27.301Z,28.50
2022-12-09T23:18:31.083Z,25.90
2022-12-09T23:21:38.097Z,28.15
2022-12-09T23:24:39.090Z,28.30
2022-12-09T23:27:39.887Z,28.90
2022-12-09T23:30:41.056Z,27.83
2022-12-09T23:33:45.580Z,28.60
2022-12-09T23:36:46.845Z,27.40
2022-12-09T23:39:48.981Z,30.27
2022-12-09T23:42:53.531Z,29.75
2022-12-09T23:45:54.358Z,29.58
2022-12-09T23:48:56.854Z,28.58
2022-12-09T23:51:57.590Z,28.15
2022-12-09T23:55:03.881Z,28.55
2022-12-09T23:58:05.442Z,26.75
